Imperial, CA (92251)

6:56 PM PST on December 05, 2016 (GMT -0800)
Imperial County | | Change Station

Elev -56 ft 32.83 °N, 115.58 °W | Updated 3 minutes ago

Clear
Clear
56 °F
Feels Like 56 °F
N
5
Wind Variable Wind from NNW

Today
High -- | Low -- °F
--% Chance of Precip.
Yesterday
High -- | Low -- °F
Precip. -- in
Pressure 29.87 in
Visibility 10.0 miles
Clouds Clear
Dew Point 37 °F
Humidity 49%
Rainfall 0.00 in
Snow Depth Not available.
6:30 AM 4:35 PM
Waxing Crescent, 37% visible
METAR KIPL 060253Z AUTO 34004KT 10SM CLR 13/03 A2987 RMK AO2 SLP114 T01330028 53007
Pressure 29.87 in
Visibility 10.0 miles
Clouds Clear
Dew Point 37 °F
Humidity 49%
Rainfall 0.00 in
Snow Depth Not available.
6:30 AM 4:35 PM
Waxing Crescent, 37% visible
METAR KIPL 060253Z AUTO 34004KT 10SM CLR 13/03 A2987 RMK AO2 SLP114 T01330028 53007

10-Day Weather Forecast

Almanac

Astronomy

Dec. 05, 2016 Rise Set
Actual Time
Civil Twilight
Nautical Twilight
Astronomical Twilight
Moon
Length of Visible Light
Length of Day
Tomorrow will be .
, % of the Moon is Illuminated

Today's Extremes

State Highs State Lows

Community

WunderPhotos

Upload Photos

1,955,908 photos uploaded!

WunderBlog® & News

Nearby

Air Quality

  Air Quality AQ Index Pollutant
Not available.

Snow Depth

Station Depth Elevation

Earthquake Activity

City Distance Mag. Time & Date
Minimum magnitude displayed is 2.5.

Coastal Water Temperatures

Place Temperature

Stations

Nearby Weather Stations

Station Location Temp. Windchill Dew Point Humidity Wind Precip. Elev Updated Type
                   

Watches & Warnings

There are currently no watches in effect.